createdAt,value
2018-05-10T00:00:08.661Z,96969.11
2018-05-10T00:00:40.270Z,96966.61
2018-05-10T00:01:11.878Z,96964.91
2018-05-10T00:01:43.482Z,96972.59
2018-05-10T00:02:15.053Z,96961.20
2018-05-10T00:02:46.634Z,96963.21
2018-05-10T00:03:18.214Z,96967.89
2018-05-10T00:03:49.797Z,96967.47
2018-05-10T00:04:21.436Z,96967.05
2018-05-10T00:04:53.018Z,96965.36
2018-05-10T00:05:24.618Z,96961.09
2018-05-10T00:05:56.210Z,96969.61
2018-05-10T00:06:27.790Z,96969.64
2018-05-10T00:06:59.380Z,96969.20
2018-05-10T00:07:30.981Z,96966.19
2018-05-10T00:08:02.576Z,96964.08
2018-05-10T00:08:34.162Z,96968.75
2018-05-10T00:09:05.765Z,96965.80
2018-05-10T00:09:37.396Z,96962.82
2018-05-10T00:10:09.006Z,96964.08
2018-05-10T00:10:40.609Z,96960.66
2018-05-10T00:11:12.208Z,96963.23
2018-05-10T00:11:43.960Z,96958.98
2018-05-10T00:12:15.538Z,96955.59
2018-05-10T00:12:47.141Z,96960.70
2018-05-10T00:13:18.739Z,96957.73
2018-05-10T00:13:50.350Z,96955.59
2018-05-10T00:14:21.934Z,96950.89
2018-05-10T00:14:53.529Z,96951.72
2018-05-10T00:15:25.098Z,96950.44
2018-05-10T00:15:56.754Z,96956.84
2018-05-10T00:16:28.362Z,96950.11
2018-05-10T00:16:59.936Z,96952.66
2018-05-10T00:17:31.549Z,96955.17
2018-05-10T00:18:03.134Z,96952.61
2018-05-10T00:18:34.736Z,96959.42
2018-05-10T00:19:06.312Z,96954.41
2018-05-10T00:19:37.904Z,96959.48
2018-05-10T00:20:09.508Z,96953.11
2018-05-10T00:20:41.126Z,96960.34
2018-05-10T00:21:12.741Z,96943.25
2018-05-10T00:21:44.318Z,96953.97
2018-05-10T00:22:15.922Z,96957.39
2018-05-10T00:22:47.561Z,96956.53
2018-05-10T00:23:19.150Z,96957.81
2018-05-10T00:23:50.748Z,96953.11
2018-05-10T00:24:22.338Z,96954.00
2018-05-10T00:24:53.954Z,96957.86
2018-05-10T00:25:25.534Z,96958.67
2018-05-10T00:25:57.128Z,96956.58
2018-05-10T00:26:28.724Z,96961.25
2018-05-10T00:27:00.336Z,96959.53
2018-05-10T00:27:31.950Z,96952.69
2018-05-10T00:28:03.556Z,96959.09
2018-05-10T00:28:35.162Z,96957.00
2018-05-10T00:29:06.736Z,96956.55
2018-05-10T00:29:38.334Z,96949.30
2018-05-10T00:30:09.953Z,96951.86
2018-05-10T00:30:41.562Z,96956.11
2018-05-10T00:31:13.132Z,96948.86
2018-05-10T00:31:44.770Z,96955.69
2018-05-10T00:32:16.377Z,96956.55
2018-05-10T00:32:48.018Z,96958.28
2018-05-10T00:33:19.588Z,96961.25
2018-05-10T00:33:51.175Z,96953.66
2018-05-10T00:34:22.782Z,96954.97
2018-05-10T00:34:54.389Z,96952.43
2018-05-10T00:35:25.997Z,96957.55
2018-05-10T00:35:57.576Z,96955.49
2018-05-10T00:36:29.148Z,96955.89
2018-05-10T00:37:00.781Z,96948.16
2018-05-10T00:37:32.406Z,96959.33
2018-05-10T00:38:03.991Z,96954.21
2018-05-10T00:38:35.570Z,96956.75
2018-05-10T00:39:07.193Z,96958.39
2018-05-10T00:39:38.775Z,96959.75
2018-05-10T00:40:10.354Z,96962.75
2018-05-10T00:40:41.964Z,96958.91
2018-05-10T00:41:13.559Z,96958.91
2018-05-10T00:41:45.162Z,96960.17
2018-05-10T00:42:16.765Z,96961.05
2018-05-10T00:42:48.370Z,96966.17
2018-05-10T00:43:19.983Z,96965.31
2018-05-10T00:43:51.566Z,96962.75
2018-05-10T00:44:23.210Z,96963.56
2018-05-10T00:44:54.780Z,96963.56
2018-05-10T00:45:26.383Z,96959.75
2018-05-10T00:45:57.994Z,96965.28
2018-05-10T00:46:29.637Z,96963.17
2018-05-10T00:47:01.229Z,96963.17
2018-05-10T00:47:32.820Z,96959.86
2018-05-10T00:48:04.392Z,96963.61
2018-05-10T00:48:36.020Z,96959.86
2018-05-10T00:49:07.611Z,96963.61
2018-05-10T00:49:39.214Z,96956.44
2018-05-10T00:50:10.799Z,96962.83
2018-05-10T00:50:42.386Z,96966.20
2018-05-10T00:51:13.986Z,96962.41
2018-05-10T00:51:45.595Z,96962.83
2018-05-10T00:52:17.214Z,96957.73
2018-05-10T00:52:48.801Z,96964.11
2018-05-10T00:53:20.414Z,96964.97
2018-05-10T00:53:52.026Z,96961.55
2018-05-10T00:54:23.605Z,96959.46
2018-05-10T00:54:56.037Z,96959.02
2018-05-10T00:55:27.641Z,96957.32
2018-05-10T00:55:59.294Z,96954.77
2018-05-10T00:56:30.893Z,96957.34
2018-05-10T00:57:02.498Z,96955.23
2018-05-10T00:57:34.072Z,96964.60
2018-05-10T00:58:05.653Z,96956.52
2018-05-10T00:58:37.220Z,96957.34
2018-05-10T00:59:08.822Z,96961.16
2018-05-10T00:59:40.392Z,96962.36
2018-05-10T01:00:11.960Z,96961.89
2018-05-10T01:00:43.536Z,96963.17
2018-05-10T01:01:15.158Z,96958.91
2018-05-10T01:01:46.761Z,96960.19
2018-05-10T01:02:18.343Z,96960.19
2018-05-10T01:02:49.925Z,96957.21
2018-05-10T01:03:21.517Z,96963.61
2018-05-10T01:03:53.158Z,96964.89
2018-05-10T01:04:24.738Z,96966.20
2018-05-10T01:04:56.428Z,96958.52
2018-05-10T01:05:27.943Z,96957.23
2018-05-10T01:05:59.544Z,96959.80
2018-05-10T01:06:31.130Z,96958.99
2018-05-10T01:07:02.711Z,96956.80
2018-05-10T01:07:34.301Z,96954.68
2018-05-10T01:08:05.890Z,96960.22
2018-05-10T01:08:37.496Z,96959.38
2018-05-10T01:09:09.130Z,96960.22
2018-05-10T01:09:40.729Z,96955.52
2018-05-10T01:10:12.327Z,96959.86
2018-05-10T01:10:43.910Z,96957.30
2018-05-10T01:11:15.477Z,96955.07
2018-05-10T01:11:47.049Z,96956.77
2018-05-10T01:12:18.653Z,96950.81
2018-05-10T01:12:50.246Z,96958.94
2018-05-10T01:13:21.820Z,96947.86
2018-05-10T01:13:53.422Z,96952.95
2018-05-10T01:14:25.070Z,96953.41
2018-05-10T01:14:56.677Z,96950.48
2018-05-10T01:15:28.266Z,96950.90
2018-05-10T01:15:59.849Z,96954.68
2018-05-10T01:16:31.459Z,96949.53
2018-05-10T01:17:03.055Z,96951.66
2018-05-10T01:17:34.660Z,96947.42
2018-05-10T01:18:06.267Z,96948.26
2018-05-10T01:18:37.894Z,96951.27
2018-05-10T01:19:09.493Z,96947.42
2018-05-10T01:19:41.078Z,96950.84
2018-05-10T01:20:12.656Z,96948.70
2018-05-10T01:20:44.257Z,96946.95
2018-05-10T01:21:15.842Z,96946.56
2018-05-10T01:21:47.437Z,96947.48
2018-05-10T01:22:19.018Z,96941.95
2018-05-10T01:22:50.679Z,96942.80
2018-05-10T01:23:22.261Z,96939.41
2018-05-10T01:23:53.880Z,96950.06
2018-05-10T01:24:25.475Z,96944.50
2018-05-10T01:24:57.082Z,96941.02
2018-05-10T01:25:28.689Z,96939.74
2018-05-10T01:26:00.297Z,96944.45
2018-05-10T01:26:31.876Z,96947.50
2018-05-10T01:27:03.454Z,96944.95
2018-05-10T01:27:35.031Z,96943.22
2018-05-10T01:28:06.649Z,96945.78
2018-05-10T01:28:38.253Z,96941.88
2018-05-10T01:29:09.838Z,96941.52
2018-05-10T01:29:41.449Z,96944.53
2018-05-10T01:30:13.024Z,96940.72
2018-05-10T01:30:44.609Z,96941.16
2018-05-10T01:31:16.226Z,96940.80
2018-05-10T01:31:47.816Z,96940.84
2018-05-10T01:32:19.407Z,96941.66
2018-05-10T01:32:50.994Z,96939.09
2018-05-10T01:33:22.575Z,96934.41
2018-05-10T01:33:54.222Z,96942.52
2018-05-10T01:34:25.834Z,96944.24
2018-05-10T01:34:57.437Z,96938.70
2018-05-10T01:35:29.018Z,96942.10
2018-05-10T01:36:00.643Z,96936.55
2018-05-10T01:36:32.226Z,96933.56
2018-05-10T01:37:03.866Z,96932.28
2018-05-10T01:37:35.446Z,96939.13
2018-05-10T01:38:07.026Z,96939.56
2018-05-10T01:38:38.625Z,96938.29
2018-05-10T01:39:10.250Z,96939.56
2018-05-10T01:39:41.849Z,96932.75
2018-05-10T01:40:13.448Z,96935.29
2018-05-10T01:40:45.020Z,96942.10
2018-05-10T01:41:16.604Z,96937.42
2018-05-10T01:41:48.220Z,96942.96
2018-05-10T01:42:19.813Z,96938.29
2018-05-10T01:42:51.413Z,96938.27
2018-05-10T01:43:22.988Z,96941.27
2018-05-10T01:43:54.580Z,96942.52
2018-05-10T01:44:26.166Z,96940.80
2018-05-10T01:44:57.769Z,96936.13
2018-05-10T01:45:29.364Z,96940.41
2018-05-10T01:46:00.952Z,96939.20
2018-05-10T01:46:32.538Z,96939.13
2018-05-10T01:47:04.114Z,96939.98
2018-05-10T01:47:35.691Z,96939.13
2018-05-10T01:48:07.341Z,96917.83
2018-05-10T01:48:38.920Z,96935.27
2018-05-10T01:49:10.526Z,96939.13
2018-05-10T01:49:42.133Z,96934.03
2018-05-10T01:50:13.723Z,96941.70
2018-05-10T01:50:45.326Z,96935.37
2018-05-10T01:51:16.930Z,96932.81
2018-05-10T01:51:48.529Z,96936.23
2018-05-10T01:52:20.114Z,96930.70
2018-05-10T01:52:51.714Z,96935.84
2018-05-10T01:53:23.349Z,96937.53
2018-05-10T01:53:54.940Z,96942.20
2018-05-10T01:54:26.552Z,96936.25
2018-05-10T01:54:58.138Z,96939.56
2018-05-10T01:55:29.708Z,96934.87
2018-05-10T01:56:01.286Z,96934.42
2018-05-10T01:56:32.892Z,96937.87
2018-05-10T01:57:04.468Z,96934.92
2018-05-10T01:57:36.069Z,96936.65
2018-05-10T01:58:07.694Z,96931.95
2018-05-10T01:58:39.285Z,96934.11
2018-05-10T01:59:10.894Z,96934.53
2018-05-10T01:59:42.478Z,96933.70
2018-05-10T02:00:14.071Z,96930.70
2018-05-10T02:00:45.644Z,96935.42
2018-05-10T02:01:17.245Z,96933.28
2018-05-10T02:01:48.870Z,96933.72
2018-05-10T02:02:20.454Z,96927.33
2018-05-10T02:02:52.074Z,96936.78
2018-05-10T02:03:23.650Z,96932.94
2018-05-10T02:03:55.245Z,96931.66
2018-05-10T02:04:26.825Z,96940.64
2018-05-10T02:04:58.416Z,96936.39
2018-05-10T02:05:29.989Z,96928.38
2018-05-10T02:06:01.557Z,96935.95
2018-05-10T02:06:33.148Z,96931.30
2018-05-10T02:07:04.741Z,96940.25
2018-05-10T02:07:36.352Z,96931.77
2018-05-10T02:08:07.940Z,96932.13
2018-05-10T02:08:39.558Z,96933.05
2018-05-10T02:09:11.164Z,96930.08
2018-05-10T02:09:42.760Z,96937.69
2018-05-10T02:10:14.350Z,96935.55
2018-05-10T02:10:45.930Z,96935.63
2018-05-10T02:11:17.535Z,96933.52
2018-05-10T02:11:49.178Z,96940.77
2018-05-10T02:12:20.846Z,96932.68
2018-05-10T02:12:52.427Z,96932.68
2018-05-10T02:13:24.026Z,96931.88
2018-05-10T02:13:55.634Z,96935.72
2018-05-10T02:14:27.222Z,96932.32
2018-05-10T02:14:58.829Z,96936.16
2018-05-10T02:15:30.438Z,96934.06
2018-05-10T02:16:02.046Z,96935.32
2018-05-10T02:16:33.630Z,96934.88
2018-05-10T02:17:05.214Z,96937.02
2018-05-10T02:17:36.879Z,96938.66
2018-05-10T02:18:08.486Z,96938.19
2018-05-10T02:18:40.066Z,96940.72
2018-05-10T02:19:11.669Z,96938.06
2018-05-10T02:19:43.257Z,96938.95
2018-05-10T02:20:14.825Z,96941.45
2018-05-10T02:20:46.430Z,96937.64
2018-05-10T02:21:18.042Z,96935.95
2018-05-10T02:21:49.626Z,96938.84
2018-05-10T02:22:21.196Z,96937.14
2018-05-10T02:22:52.829Z,96939.34
2018-05-10T02:23:24.414Z,96936.78
2018-05-10T02:23:56.004Z,96939.36
2018-05-10T02:24:27.609Z,96935.53
2018-05-10T02:24:59.218Z,96937.69
2018-05-10T02:25:30.798Z,96937.30
2018-05-10T02:26:02.407Z,96941.14
2018-05-10T02:26:34.022Z,96940.72
2018-05-10T02:27:05.592Z,96938.59
2018-05-10T02:27:37.160Z,96939.45
2018-05-10T02:28:08.771Z,96937.80
2018-05-10T02:28:40.340Z,96943.70
2018-05-10T02:29:11.922Z,96941.14
2018-05-10T02:29:43.504Z,96938.11
2018-05-10T02:30:15.095Z,96939.81
2018-05-10T02:30:46.722Z,96939.39
2018-05-10T02:31:18.321Z,96943.23
2018-05-10T02:31:49.921Z,96942.42
2018-05-10T02:32:21.526Z,96939.89
2018-05-10T02:32:53.129Z,96937.77
2018-05-10T02:33:24.725Z,96939.45
2018-05-10T02:33:56.305Z,96942.86
2018-05-10T02:34:27.901Z,96936.89
2018-05-10T02:34:59.522Z,96937.67
2018-05-10T02:35:31.118Z,96940.31
2018-05-10T02:36:02.689Z,96941.17
2018-05-10T02:36:34.276Z,96936.52
2018-05-10T02:37:05.862Z,96940.77
2018-05-10T02:37:37.471Z,96936.52
2018-05-10T02:38:09.077Z,96938.66
2018-05-10T02:38:40.658Z,96933.09
2018-05-10T02:39:12.299Z,96940.00
2018-05-10T02:39:43.889Z,96934.88
2018-05-10T02:40:15.470Z,96934.46
2018-05-10T02:40:47.045Z,96937.44
2018-05-10T02:41:18.646Z,96936.63
2018-05-10T02:41:50.254Z,96931.15
2018-05-10T02:42:21.856Z,96934.93
2018-05-10T02:42:53.438Z,96940.05
2018-05-10T02:43:25.042Z,96936.66
2018-05-10T02:43:56.646Z,96939.63
2018-05-10T02:44:28.260Z,96933.29
2018-05-10T02:44:59.847Z,96933.70
2018-05-10T02:45:31.457Z,96942.60
2018-05-10T02:46:03.058Z,96935.38
2018-05-10T02:46:34.642Z,96936.73
2018-05-10T02:47:06.300Z,96939.69
2018-05-10T02:47:37.855Z,96937.56
2018-05-10T02:48:09.476Z,96938.01
2018-05-10T02:48:41.081Z,96935.45
2018-05-10T02:49:12.693Z,96938.01
2018-05-10T02:49:44.275Z,96939.30
2018-05-10T02:50:15.877Z,96935.11
2018-05-10T02:50:47.469Z,96938.84
2018-05-10T02:51:19.047Z,96933.31
2018-05-10T02:51:50.649Z,96935.06
2018-05-10T02:52:22.302Z,96935.90
2018-05-10T02:52:53.895Z,96935.48
2018-05-10T02:53:25.498Z,96940.65
2018-05-10T02:53:57.098Z,96933.78
2018-05-10T02:54:28.668Z,96937.62
2018-05-10T02:55:00.250Z,96936.75
2018-05-10T02:55:31.827Z,96941.02
2018-05-10T02:56:03.469Z,96935.53
2018-05-10T02:56:35.079Z,96940.65
2018-05-10T02:57:06.670Z,96940.17
2018-05-10T02:57:38.278Z,96932.50
2018-05-10T02:58:09.891Z,96933.36
2018-05-10T02:58:41.489Z,96933.00
2018-05-10T02:59:13.092Z,96934.70
2018-05-10T02:59:44.701Z,96935.56
2018-05-10T03:00:16.305Z,96938.48
2018-05-10T03:00:47.934Z,96936.42
2018-05-10T03:01:19.570Z,96935.58
2018-05-10T03:01:51.161Z,96933.47
2018-05-10T03:02:22.757Z,96934.30
2018-05-10T03:02:54.361Z,96925.46
2018-05-10T03:03:25.955Z,96935.58
2018-05-10T03:03:57.569Z,96937.72
2018-05-10T03:04:29.173Z,96939.00
2018-05-10T03:05:00.778Z,96932.25
2018-05-10T03:05:32.391Z,96941.14
2018-05-10T03:06:03.984Z,96937.30
2018-05-10T03:06:35.629Z,96947.53
2018-05-10T03:07:07.228Z,96942.00
2018-05-10T03:07:38.874Z,96936.89
2018-05-10T03:08:10.469Z,96942.00
2018-05-10T03:08:42.048Z,96940.34
2018-05-10T03:09:13.658Z,96935.25
2018-05-10T03:09:45.242Z,96938.22
2018-05-10T03:10:16.808Z,96939.92
2018-05-10T03:10:48.390Z,96935.66
2018-05-10T03:11:19.969Z,96941.62
2018-05-10T03:11:51.574Z,96938.67
2018-05-10T03:12:23.177Z,96937.39
2018-05-10T03:12:54.761Z,96940.36
2018-05-10T03:13:26.392Z,96935.27
2018-05-10T03:13:57.978Z,96938.35
2018-05-10T03:14:29.583Z,96939.53
2018-05-10T03:15:01.242Z,96936.13
2018-05-10T03:15:32.812Z,96936.53
2018-05-10T03:16:04.390Z,96935.66
2018-05-10T03:16:35.957Z,96936.08
2018-05-10T03:17:07.563Z,96938.22
2018-05-10T03:17:39.172Z,96934.83
2018-05-10T03:18:10.764Z,96936.53
2018-05-10T03:18:42.390Z,96939.50
2018-05-10T03:19:14.003Z,96940.78
2018-05-10T03:19:45.576Z,96934.83
2018-05-10T03:20:17.178Z,96936.89
2018-05-10T03:20:48.762Z,96938.17
2018-05-10T03:21:20.342Z,96936.08
2018-05-10T03:21:51.982Z,96936.86
2018-05-10T03:22:23.566Z,96936.03
2018-05-10T03:22:55.157Z,96936.00
2018-05-10T03:23:26.767Z,96940.25
2018-05-10T03:23:58.354Z,96935.58
2018-05-10T03:24:29.944Z,96937.72
2018-05-10T03:25:01.557Z,96937.30
2018-05-10T03:25:33.208Z,96938.17
2018-05-10T03:26:04.810Z,96935.22
2018-05-10T03:26:36.389Z,96945.45
2018-05-10T03:27:07.989Z,96944.12
2018-05-10T03:27:39.575Z,96941.20
2018-05-10T03:28:11.153Z,96935.66
2018-05-10T03:28:42.745Z,96944.62
2018-05-10T03:29:14.357Z,96945.06
2018-05-10T03:29:45.968Z,96941.22
2018-05-10T03:30:17.559Z,96941.22
2018-05-10T03:30:49.129Z,96946.31
2018-05-10T03:31:20.697Z,96944.64
2018-05-10T03:31:52.265Z,96943.78
2018-05-10T03:32:23.865Z,96948.40
2018-05-10T03:32:55.436Z,96943.76
2018-05-10T03:33:27.046Z,96944.09
2018-05-10T03:33:58.654Z,96946.66
2018-05-10T03:34:30.245Z,96952.63
2018-05-10T03:35:01.941Z,96950.88
2018-05-10T03:35:33.539Z,96944.98
2018-05-10T03:36:05.127Z,96946.66
2018-05-10T03:36:36.725Z,96949.63
2018-05-10T03:37:08.310Z,96949.66
2018-05-10T03:37:39.881Z,96948.77
2018-05-10T03:38:11.481Z,96953.05
2018-05-10T03:38:43.065Z,96946.23
2018-05-10T03:39:14.669Z,96955.21
2018-05-10T03:39:46.265Z,96950.52
2018-05-10T03:40:17.884Z,96954.80
2018-05-10T03:40:49.462Z,96944.17
2018-05-10T03:41:21.107Z,96953.93
2018-05-10T03:41:52.694Z,96953.07
2018-05-10T03:42:24.297Z,96951.80
2018-05-10T03:42:55.923Z,96950.09
2018-05-10T03:43:27.503Z,96952.23
2018-05-10T03:43:59.086Z,96950.52
2018-05-10T03:44:30.706Z,96953.52
2018-05-10T03:45:02.314Z,96954.80
2018-05-10T03:45:33.902Z,96950.95
2018-05-10T03:46:05.507Z,96952.20
2018-05-10T03:46:37.106Z,96955.60
2018-05-10T03:47:08.691Z,96950.09
2018-05-10T03:47:40.270Z,96950.52
2018-05-10T03:48:11.860Z,96954.41
2018-05-10T03:48:43.433Z,96951.85
2018-05-10T03:49:15.041Z,96949.73
2018-05-10T03:49:46.658Z,96954.84
2018-05-10T03:50:18.256Z,96954.84
2018-05-10T03:50:49.902Z,96954.02
2018-05-10T03:51:21.490Z,96956.59
2018-05-10T03:51:53.070Z,96957.45
2018-05-10T03:52:24.664Z,96955.77
2018-05-10T03:52:56.274Z,96956.62
2018-05-10T03:53:27.863Z,96958.73
2018-05-10T03:53:59.446Z,96967.25
2018-05-10T03:54:31.171Z,96958.31
2018-05-10T03:55:02.718Z,96956.62
2018-05-10T03:55:34.285Z,96958.38
2018-05-10T03:56:05.853Z,96956.26
2018-05-10T03:56:37.432Z,96956.67
2018-05-10T03:57:09.024Z,96959.66
2018-05-10T03:57:40.605Z,96957.52
2018-05-10T03:58:12.210Z,96951.56
2018-05-10T03:58:43.818Z,96954.98
2018-05-10T03:59:15.413Z,96951.56
2018-05-10T03:59:47.018Z,96952.78
2018-05-10T04:00:18.589Z,96949.36
2018-05-10T04:00:50.157Z,96959.66
2018-05-10T04:01:21.808Z,96949.05
2018-05-10T04:01:53.404Z,96949.89
2018-05-10T04:02:24.982Z,96950.33
2018-05-10T04:02:56.552Z,96949.91
2018-05-10T04:03:28.165Z,96948.19
2018-05-10T04:03:59.757Z,96945.27
2018-05-10T04:04:31.354Z,96946.55
2018-05-10T04:05:02.961Z,96951.19
2018-05-10T04:05:34.546Z,96946.49
2018-05-10T04:06:06.240Z,96948.61
2018-05-10T04:06:37.762Z,96946.47
2018-05-10T04:07:09.337Z,96949.45
2018-05-10T04:07:40.934Z,96951.14
2018-05-10T04:08:12.591Z,96943.89
2018-05-10T04:08:44.168Z,96946.45
2018-05-10T04:09:15.748Z,96946.03
2018-05-10T04:09:47.340Z,96943.05
2018-05-10T04:10:18.922Z,96943.47
2018-05-10T04:10:50.493Z,96949.45
2018-05-10T04:11:22.070Z,96949.00
2018-05-10T04:11:53.660Z,96947.30
2018-05-10T04:12:25.266Z,96946.47
2018-05-10T04:12:56.854Z,96945.66
2018-05-10T04:13:28.433Z,96948.03
2018-05-10T04:14:00.065Z,96946.26
2018-05-10T04:14:31.665Z,96950.47
2018-05-10T04:15:03.313Z,96951.66
2018-05-10T04:15:34.897Z,96948.66
2018-05-10T04:16:06.501Z,96952.39
2018-05-10T04:16:38.090Z,96950.54
2018-05-10T04:17:09.680Z,96950.48
2018-05-10T04:17:41.252Z,96952.63
2018-05-10T04:18:12.832Z,96951.39
2018-05-10T04:18:44.410Z,96944.22
2018-05-10T04:19:16.057Z,96953.81
2018-05-10T04:19:47.662Z,96953.00
2018-05-10T04:20:19.273Z,96950.11
2018-05-10T04:20:50.882Z,96954.84
2018-05-10T04:21:22.465Z,96944.99
2018-05-10T04:21:54.073Z,96948.66
2018-05-10T04:22:25.640Z,96947.97
2018-05-10T04:22:57.221Z,96954.73
2018-05-10T04:23:28.788Z,96946.96
2018-05-10T04:24:00.400Z,96950.64
2018-05-10T04:24:31.982Z,96951.94
2018-05-10T04:25:03.583Z,96949.83
2018-05-10T04:25:35.161Z,96956.03
2018-05-10T04:26:06.746Z,96951.92
2018-05-10T04:26:38.350Z,96961.20
2018-05-10T04:27:10.026Z,96958.22
2018-05-10T04:27:41.634Z,96959.08
2018-05-10T04:28:13.218Z,96961.80
2018-05-10T04:28:44.801Z,96954.65
2018-05-10T04:29:16.406Z,96958.95
2018-05-10T04:29:47.977Z,96958.20
2018-05-10T04:30:19.559Z,96956.21
2018-05-10T04:30:51.145Z,96961.05
2018-05-10T04:31:22.785Z,96958.73
2018-05-10T04:31:54.380Z,96960.30
2018-05-10T04:32:25.990Z,96958.20
2018-05-10T04:32:57.584Z,96961.28
2018-05-10T04:33:29.177Z,96963.02
2018-05-10T04:34:00.791Z,96960.85
2018-05-10T04:34:32.402Z,96961.95
2018-05-10T04:35:03.986Z,96958.83
2018-05-10T04:35:35.577Z,96961.57
2018-05-10T04:36:07.185Z,96961.75
2018-05-10T04:36:38.820Z,96961.92
2018-05-10T04:37:10.425Z,96963.86
2018-05-10T04:37:42.074Z,96965.05
2018-05-10T04:38:13.688Z,96964.95
2018-05-10T04:38:45.309Z,96967.23
2018-05-10T04:39:16.939Z,96964.59
2018-05-10T04:39:48.549Z,96965.44
2018-05-10T04:40:20.133Z,96968.91
2018-05-10T04:40:51.734Z,96964.23
2018-05-10T04:41:23.337Z,96969.16
2018-05-10T04:41:54.962Z,96969.05
2018-05-10T04:42:26.566Z,96970.73
2018-05-10T04:42:58.178Z,96966.84
2018-05-10T04:43:29.758Z,96967.55
2018-05-10T04:44:01.338Z,96968.97
2018-05-10T04:44:32.905Z,96973.83
2018-05-10T04:45:04.486Z,96968.03
2018-05-10T04:45:36.093Z,96966.02
2018-05-10T04:46:07.670Z,96969.17
2018-05-10T04:46:39.287Z,96970.58
2018-05-10T04:47:10.893Z,96975.75
2018-05-10T04:47:42.465Z,96974.66
2018-05-10T04:48:14.066Z,96972.52
2018-05-10T04:48:45.662Z,96974.29
2018-05-10T04:49:17.253Z,96974.34
2018-05-10T04:49:48.846Z,96976.52
2018-05-10T04:50:20.422Z,96972.34
2018-05-10T04:50:52.050Z,96975.78
2018-05-10T04:51:23.633Z,96971.19
2018-05-10T04:51:55.201Z,96977.61
2018-05-10T04:52:26.819Z,96975.13
2018-05-10T04:52:58.416Z,96979.86
2018-05-10T04:53:30.022Z,96979.02
2018-05-10T04:54:01.616Z,96977.77
2018-05-10T04:54:33.192Z,96978.62
2018-05-10T04:55:04.778Z,96978.24
2018-05-10T04:55:36.369Z,96978.24
2018-05-10T04:56:07.950Z,96982.10
2018-05-10T04:56:39.534Z,96980.42
2018-05-10T04:57:11.134Z,96977.01
2018-05-10T04:57:42.721Z,96981.77
2018-05-10T04:58:14.329Z,96980.92
2018-05-10T04:58:45.924Z,96982.65
2018-05-10T04:59:17.521Z,96980.92
2018-05-10T04:59:49.154Z,96982.20
2018-05-10T05:00:20.757Z,96981.37
2018-05-10T05:00:52.348Z,96980.12
2018-05-10T05:01:23.930Z,96976.30
2018-05-10T05:01:55.528Z,96985.67
2018-05-10T05:02:27.134Z,96984.81
2018-05-10T05:02:58.737Z,96980.88
2018-05-10T05:03:30.401Z,96974.53
2018-05-10T05:04:01.958Z,96976.59
2018-05-10T05:04:33.558Z,96980.02
2018-05-10T05:05:05.170Z,96984.22
2018-05-10T05:05:36.774Z,96977.42
2018-05-10T05:06:08.368Z,96977.42
2018-05-10T05:06:40.053Z,96974.45
2018-05-10T05:07:11.606Z,96981.29
2018-05-10T05:07:43.243Z,96977.51
2018-05-10T05:08:14.830Z,96976.56
2018-05-10T05:08:46.438Z,96982.13
2018-05-10T05:09:18.073Z,96989.02
2018-05-10T05:09:49.683Z,96991.19
2018-05-10T05:10:21.278Z,96987.38
2018-05-10T05:10:52.864Z,96986.06
2018-05-10T05:11:24.452Z,96991.16
2018-05-10T05:11:56.080Z,96989.51
2018-05-10T05:12:27.710Z,96990.30
2018-05-10T05:12:59.290Z,96992.02
2018-05-10T05:13:30.870Z,96991.63
2018-05-10T05:14:02.440Z,96993.33
2018-05-10T05:14:34.018Z,96990.34
2018-05-10T05:15:05.630Z,96995.05
2018-05-10T05:15:37.235Z,96992.05
2018-05-10T05:16:08.822Z,96989.05
2018-05-10T05:16:40.430Z,96992.91
2018-05-10T05:17:12.010Z,96990.30
2018-05-10T05:17:43.640Z,96989.44
2018-05-10T05:18:15.245Z,96991.11
2018-05-10T05:18:46.829Z,96995.41
2018-05-10T05:19:18.434Z,96994.08
2018-05-10T05:19:50.018Z,96989.44
2018-05-10T05:20:21.588Z,96992.38
2018-05-10T05:20:53.166Z,96995.75
2018-05-10T05:21:24.863Z,96984.16
2018-05-10T05:21:56.430Z,96993.11
2018-05-10T05:22:28.042Z,96997.45
2018-05-10T05:22:59.621Z,96989.44
2018-05-10T05:23:31.188Z,97001.34
2018-05-10T05:24:02.766Z,96995.86
2018-05-10T05:24:34.356Z,96996.72
2018-05-10T05:25:05.928Z,96998.41
2018-05-10T05:25:37.510Z,97000.11
2018-05-10T05:26:09.110Z,96999.67
2018-05-10T05:26:40.681Z,96997.98
2018-05-10T05:27:12.262Z,97004.84
2018-05-10T05:27:43.846Z,97004.42
2018-05-10T05:28:15.435Z,97002.78
2018-05-10T05:28:47.008Z,97003.22
2018-05-10T05:29:18.654Z,97005.36
2018-05-10T05:29:50.234Z,97003.69
2018-05-10T05:30:21.814Z,97000.70
2018-05-10T05:30:53.429Z,97007.10
2018-05-10T05:31:25.034Z,97001.12
2018-05-10T05:31:56.622Z,96998.56
2018-05-10T05:32:28.221Z,96992.59
2018-05-10T05:32:59.830Z,97002.48
2018-05-10T05:33:31.410Z,96999.51
2018-05-10T05:34:03.037Z,96998.25
2018-05-10T05:34:34.614Z,96998.23
2018-05-10T05:35:06.207Z,96997.37
2018-05-10T05:35:37.890Z,97000.77
2018-05-10T05:36:09.437Z,97001.96
2018-05-10T05:36:41.079Z,97003.64
2018-05-10T05:37:12.670Z,97002.80
2018-05-10T05:37:44.236Z,97007.05
2018-05-10T05:38:15.833Z,96998.25
2018-05-10T05:38:47.417Z,97001.08
2018-05-10T05:39:19.018Z,97004.50
2018-05-10T05:39:50.589Z,97001.52
2018-05-10T05:40:22.166Z,97000.70
2018-05-10T05:40:53.760Z,97001.55
2018-05-10T05:41:25.378Z,97002.91
2018-05-10T05:41:56.985Z,96998.98
2018-05-10T05:42:28.618Z,97001.16
2018-05-10T05:43:00.198Z,96993.88
2018-05-10T05:43:31.891Z,96997.73
2018-05-10T05:44:03.391Z,96994.05
2018-05-10T05:44:34.966Z,96996.53
2018-05-10T05:45:06.566Z,96994.41
2018-05-10T05:45:38.170Z,96998.33
2018-05-10T05:46:09.777Z,96999.09
2018-05-10T05:46:41.382Z,96996.51
2018-05-10T05:47:12.966Z,96993.89
2018-05-10T05:47:44.590Z,96992.62
2018-05-10T05:48:16.180Z,96993.45
2018-05-10T05:48:47.785Z,96995.59
2018-05-10T05:49:19.394Z,96991.81
2018-05-10T05:49:50.998Z,96994.31
2018-05-10T05:50:22.634Z,96997.29
2018-05-10T05:50:54.211Z,96993.45
2018-05-10T05:51:25.818Z,96995.59
2018-05-10T05:51:57.412Z,96996.42
2018-05-10T05:52:28.988Z,97004.10
2018-05-10T05:53:00.581Z,97001.16
2018-05-10T05:53:32.172Z,96998.56
2018-05-10T05:54:03.779Z,97017.73
2018-05-10T05:54:35.363Z,97003.27
2018-05-10T05:55:07.017Z,97001.98
2018-05-10T05:55:38.565Z,97003.32
2018-05-10T05:56:10.133Z,96997.37
2018-05-10T05:56:41.715Z,97000.39
2018-05-10T05:57:13.308Z,97001.20
2018-05-10T05:57:44.890Z,96998.20
2018-05-10T05:58:16.465Z,97008.83
2018-05-10T05:58:48.066Z,96997.37
2018-05-10T05:59:19.646Z,96998.15
2018-05-10T05:59:51.248Z,97000.77
2018-05-10T06:00:22.834Z,97005.06
2018-05-10T06:00:54.504Z,97000.38
2018-05-10T06:01:26.022Z,97007.63
2018-05-10T06:01:57.607Z,96998.70
2018-05-10T06:02:29.183Z,97004.65
2018-05-10T06:03:00.790Z,97003.79
2018-05-10T06:03:32.403Z,97004.55
2018-05-10T06:04:03.990Z,97008.02
2018-05-10T06:04:35.574Z,97000.77
2018-05-10T06:05:07.165Z,97002.48
2018-05-10T06:05:38.776Z,97002.92
2018-05-10T06:06:10.421Z,97002.06
2018-05-10T06:06:42.002Z,97004.60
2018-05-10T06:07:13.572Z,97010.10
2018-05-10T06:07:45.163Z,97009.30
2018-05-10T06:08:16.753Z,97012.22
2018-05-10T06:08:48.404Z,97012.22
2018-05-10T06:09:19.998Z,97005.80
2018-05-10T06:09:51.606Z,97005.05
2018-05-10T06:10:23.199Z,97009.24
2018-05-10T06:10:54.845Z,97006.66